Time;durP1;ratioP1;P1;durP2;ratioP2;P2;SDS_P1;SDS_P2;PMS_P1;PMS_P2;Temp;Humidity;BMP_temperature;BMP_pressure;BME280_temperature;BME280_humidity;BME280_pressure;Samples;Min_cycle;Max_cycle;Signal;HPM_P1;HPM_P2
2023/07/15 00:00:13;;;;;;;4.80;3.47;;;19.40;99.90;;;;;;5100017;28;20071;-80
2023/07/15 00:02:42;;;;;;;3.77;3.30;;;19.40;99.90;;;;;;5109526;28;20070;-80
2023/07/15 00:05:35;;;;;;;5.05;3.90;;;19.40;99.90;;;;;;5088029;28;20047;-80
2023/07/15 00:08:05;;;;;;;7.25;3.85;;;19.40;99.90;;;;;;5084343;28;20194;-80
2023/07/15 00:10:36;;;;;;;4.68;3.45;;;19.40;99.90;;;;;;5087470;28;20441;-80
2023/07/15 00:13:02;;;;;;;8.48;4.00;;;19.40;99.90;;;;;;5090563;28;20569;-80
2023/07/15 00:15:28;;;;;;;5.00;3.80;;;19.50;99.90;;;;;;5071773;28;20056;-80
2023/07/15 00:17:54;;;;;;;6.57;3.50;;;19.60;99.90;;;;;;5071659;28;20074;-80
2023/07/15 00:20:20;;;;;;;6.82;3.70;;;19.70;99.90;;;;;;5088308;28;20048;-78
2023/07/15 00:22:46;;;;;;;4.80;3.28;;;19.40;99.90;;;;;;5088463;28;20123;-78
2023/07/15 00:25:15;;;;;;;3.92;3.22;;;19.40;99.90;;;;;;5072874;28;20075;-78
2023/07/15 00:27:42;;;;;;;4.15;3.45;;;19.50;99.90;;;;;;5093290;28;20454;-78
2023/07/15 00:30:09;;;;;;;5.82;3.65;;;19.40;99.90;;;;;;5109077;28;20047;-78
2023/07/15 00:32:34;;;;;;;3.60;3.13;;;19.40;99.90;;;;;;5107488;28;20040;-78
2023/07/15 00:35:00;;;;;;;6.05;3.63;;;19.40;99.90;;;;;;5107688;28;20039;-78
2023/07/15 00:37:26;;;;;;;6.40;3.20;;;19.30;99.90;;;;;;5108947;28;20075;-79
2023/07/15 00:39:51;;;;;;;4.38;3.42;;;19.40;99.90;;;;;;5099441;28;20100;-79
2023/07/15 00:42:59;;;;;;;5.00;3.30;;;19.80;99.90;;;;;;5074736;28;20087;-80
2023/07/15 00:45:25;;;;;;;4.35;3.05;;;19.30;99.90;;;;;;5057188;28;20044;-81
2023/07/15 00:48:04;;;;;;;5.28;3.60;;;19.40;99.90;;;;;;5069721;28;20040;-80
2023/07/15 00:50:30;;;;;;;3.85;3.03;;;19.40;99.90;;;;;;5085883;28;20055;-80
2023/07/15 00:52:55;;;;;;;4.38;3.05;;;19.40;99.90;;;;;;5108416;28;20055;-81
2023/07/15 00:55:22;;;;;;;5.63;3.35;;;19.40;99.90;;;;;;5108067;28;20073;-80
2023/07/15 00:57:48;;;;;;;5.28;3.30;;;19.40;99.90;;;;;;5091212;28;20040;-78
2023/07/15 01:00:14;;;;;;;4.78;3.50;;;19.50;99.90;;;;;;5106009;28;20566;-78
2023/07/15 01:02:42;;;;;;;6.07;3.22;;;19.40;99.90;;;;;;5087769;28;20093;-78
2023/07/15 01:05:11;;;;;;;5.45;3.40;;;19.40;99.90;;;;;;5071105;28;20083;-78
2023/07/15 01:07:37;;;;;;;4.72;3.22;;;19.40;99.90;;;;;;5088939;28;20093;-78
2023/07/15 01:10:02;;;;;;;3.78;3.00;;;19.40;99.90;;;;;;5087410;28;20048;-78
2023/07/15 01:12:28;;;;;;;4.10;3.45;;;19.40;99.90;;;;;;5102813;28;20463;-78
2023/07/15 01:14:54;;;;;;;3.80;3.22;;;19.40;99.90;;;;;;5107916;28;20047;-78
2023/07/15 01:17:20;;;;;;;7.28;3.00;;;19.50;99.90;;;;;;5089270;28;20077;-78
2023/07/15 01:19:49;;;;;;;4.78;3.28;;;19.30;99.90;;;;;;5107623;28;20174;-78
2023/07/15 01:22:16;;;;;;;3.17;2.88;;;19.30;99.90;;;;;;5088985;28;20116;-78
2023/07/15 01:24:41;;;;;;;5.38;3.17;;;19.50;99.90;;;;;;5107533;28;20440;-78
2023/07/15 01:27:08;;;;;;;3.88;2.95;;;19.30;99.90;;;;;;5107468;28;20093;-79
2023/07/15 01:29:33;;;;;;;3.92;3.55;;;19.50;99.90;;;;;;5091282;28;20083;-78
2023/07/15 01:31:59;;;;;;;4.97;2.88;;;19.30;99.90;;;;;;5088439;28;20473;-78
2023/07/15 01:34:25;;;;;;;3.60;3.28;;;19.30;99.90;;;;;;5103785;28;20501;-78
2023/07/15 01:36:51;;;;;;;5.22;2.95;;;19.30;99.90;;;;;;5087302;28;20082;-79
2023/07/15 01:39:17;;;;;;;5.35;3.15;;;19.70;99.90;;;;;;5086758;28;20102;-78
2023/07/15 01:41:43;;;;;;;4.05;2.88;;;19.30;99.90;;;;;;5086236;28;20116;-80
2023/07/15 01:44:10;;;;;;;5.90;3.22;;;19.30;99.90;;;;;;5086961;28;20052;-80
2023/07/15 01:46:39;;;;;;;5.68;3.28;;;19.30;99.90;;;;;;5069340;28;20044;-81
2023/07/15 01:49:05;;;;;;;5.13;3.40;;;19.30;99.90;;;;;;5086732;28;20048;-80
2023/07/15 01:51:31;;;;;;;4.68;3.10;;;19.30;99.90;;;;;;5073916;28;20056;-80
2023/07/15 01:53:56;;;;;;;3.50;3.20;;;19.30;99.90;;;;;;5098189;28;20063;-80
2023/07/15 01:56:22;;;;;;;3.30;3.00;;;19.30;99.90;;;;;;5087392;28;20040;-80
2023/07/15 01:58:48;;;;;;;4.95;3.00;;;19.30;99.90;;;;;;5087867;28;20042;-81
2023/07/15 02:01:14;;;;;;;3.67;3.10;;;19.30;99.90;;;;;;5086121;28;20048;-80
2023/07/15 02:03:40;;;;;;;4.63;3.08;;;19.30;99.90;;;;;;5086648;28;20087;-81
2023/07/15 02:06:06;;;;;;;4.18;3.05;;;19.30;99.90;;;;;;5088077;28;20048;-80
2023/07/15 02:08:32;;;;;;;4.15;3.10;;;19.20;99.90;;;;;;5086032;28;20047;-81
2023/07/15 02:10:58;;;;;;;4.15;3.35;;;19.20;99.90;;;;;;5087831;28;20405;-80
2023/07/15 02:13:24;;;;;;;4.30;3.30;;;19.40;99.90;;;;;;5086911;28;20120;-80
2023/07/15 02:15:50;;;;;;;4.47;3.30;;;19.10;99.90;;;;;;5086332;28;20093;-80
2023/07/15 02:18:18;;;;;;;4.47;3.13;;;19.00;99.90;;;;;;5070138;28;20040;-80
2023/07/15 02:20:46;;;;;;;3.58;3.28;;;19.20;99.90;;;;;;5103361;28;20069;-80
2023/07/15 02:23:11;;;;;;;5.57;3.55;;;19.00;99.90;;;;;;5106398;28;20051;-80
2023/07/15 02:25:37;;;;;;;4.93;3.50;;;18.90;99.90;;;;;;5080622;28;20052;-80
2023/07/15 02:28:03;;;;;;;4.15;3.22;;;18.80;99.90;;;;;;5089649;28;20039;-81
2023/07/15 02:30:28;;;;;;;4.00;2.88;;;18.80;99.90;;;;;;5088955;28;20108;-80
2023/07/15 02:32:55;;;;;;;5.18;3.40;;;18.80;99.90;;;;;;5099578;28;20040;-80
2023/07/15 02:35:21;;;;;;;4.78;3.10;;;18.70;99.90;;;;;;5089997;28;20126;-80
2023/07/15 02:37:48;;;;;;;3.83;2.88;;;19.00;99.90;;;;;;5095499;28;20122;-80
2023/07/15 02:40:15;;;;;;;6.00;3.10;;;18.70;99.90;;;;;;5090291;28;20490;-80
2023/07/15 02:42:41;;;;;;;4.35;3.33;;;19.20;99.90;;;;;;5105610;28;21068;-80
2023/07/15 02:45:10;;;;;;;4.25;3.00;;;18.70;99.90;;;;;;5112299;28;20048;-78
2023/07/15 02:47:36;;;;;;;5.90;2.90;;;18.90;99.90;;;;;;5108570;28;20083;-78
2023/07/15 02:50:04;;;;;;;5.47;3.15;;;18.60;99.90;;;;;;5110805;28;20759;-81
2023/07/15 02:52:32;;;;;;;4.00;2.90;;;18.70;99.90;;;;;;5093644;28;20541;-80
2023/07/15 02:54:59;;;;;;;4.57;3.25;;;18.60;99.90;;;;;;5093398;28;20050;-80
2023/07/15 02:57:25;;;;;;;3.40;3.03;;;18.60;99.90;;;;;;5106553;28;20129;-80
2023/07/15 02:59:51;;;;;;;4.90;3.40;;;18.50;99.90;;;;;;5109649;28;20051;-80
2023/07/15 03:02:16;;;;;;;5.80;2.75;;;18.50;99.90;;;;;;5110896;28;20051;-80
2023/07/15 03:04:42;;;;;;;4.47;3.00;;;18.50;99.90;;;;;;5111111;28;20043;-80
2023/07/15 03:07:09;;;;;;;6.45;2.72;;;18.50;99.90;;;;;;5091652;28;20035;-81
2023/07/15 03:09:35;;;;;;;4.60;2.97;;;18.50;99.90;;;;;;5110416;28;20092;-80
2023/07/15 03:12:01;;;;;;;5.57;2.88;;;18.40;99.90;;;;;;5111393;28;20086;-80
2023/07/15 03:14:26;;;;;;;6.10;3.05;;;18.70;99.90;;;;;;5111184;28;20083;-80
2023/07/15 03:16:52;;;;;;;5.55;3.03;;;18.40;99.90;;;;;;5110799;28;20040;-80
2023/07/15 03:19:17;;;;;;;3.75;2.63;;;18.40;99.90;;;;;;5091900;28;20116;-78
2023/07/15 03:21:43;;;;;;;5.35;2.80;;;18.40;99.90;;;;;;5072432;28;20558;-78
2023/07/15 03:24:09;;;;;;;4.88;2.88;;;18.40;99.90;;;;;;5074456;28;20067;-80
2023/07/15 03:26:35;;;;;;;3.05;2.75;;;18.30;99.90;;;;;;5109523;28;20139;-81
2023/07/15 03:29:00;;;;;;;6.35;2.85;;;18.40;99.90;;;;;;5107909;28;20424;-81
2023/07/15 03:31:26;;;;;;;4.03;3.00;;;18.30;99.90;;;;;;5093001;28;20045;-80
2023/07/15 03:33:53;;;;;;;3.55;3.10;;;18.20;99.90;;;;;;5092166;28;20123;-80
2023/07/15 03:36:19;;;;;;;3.88;3.13;;;18.20;99.90;;;;;;5105596;28;20052;-80
2023/07/15 03:38:44;;;;;;;4.28;3.00;;;18.20;99.90;;;;;;5109572;28;20048;-80
2023/07/15 03:41:10;;;;;;;4.43;3.00;;;18.10;99.90;;;;;;5089443;28;20039;-81
2023/07/15 03:43:35;;;;;;;5.60;3.08;;;18.10;99.90;;;;;;5109953;28;20052;-80
2023/07/15 03:46:01;;;;;;;4.57;3.25;;;18.10;99.90;;;;;;5092547;28;20115;-80
2023/07/15 03:48:27;;;;;;;4.30;3.10;;;18.10;99.90;;;;;;5109825;28;20052;-80
2023/07/15 03:50:53;;;;;;;6.43;2.97;;;18.10;99.90;;;;;;5105739;28;20039;-81
2023/07/15 03:53:18;;;;;;;3.88;2.92;;;18.10;99.90;;;;;;5110259;28;20055;-80
2023/07/15 03:55:44;;;;;;;4.95;3.10;;;18.10;99.90;;;;;;5106136;28;20043;-80
2023/07/15 03:58:10;;;;;;;5.55;3.05;;;18.10;99.90;;;;;;5089350;28;20123;-80
2023/07/15 04:00:35;;;;;;;4.60;2.90;;;18.10;99.90;;;;;;5089330;28;20097;-81
2023/07/15 04:03:01;;;;;;;4.60;2.90;;;18.10;99.90;;;;;;5083386;28;20134;-81
2023/07/15 04:05:27;;;;;;;4.00;2.78;;;18.10;99.90;;;;;;5108964;28;20523;-80
2023/07/15 04:07:53;;;;;;;4.90;3.10;;;18.10;99.90;;;;;;5110668;28;20048;-80
2023/07/15 04:10:19;;;;;;;4.93;3.10;;;18.10;99.90;;;;;;5108469;28;20050;-81
2023/07/15 04:12:44;;;;;;;4.65;2.78;;;18.10;99.90;;;;;;5090159;28;20040;-81
2023/07/15 04:15:10;;;;;;;5.53;2.95;;;18.10;99.90;;;;;;5088696;28;20417;-81
2023/07/15 04:17:41;;;;;;;5.18;2.83;;;18.20;99.90;;;;;;5089203;28;20514;-80
2023/07/15 04:20:12;;;;;;;6.47;2.97;;;18.50;99.90;;;;;;5088564;28;20119;-81
2023/07/15 04:22:37;;;;;;;3.03;2.63;;;18.20;99.90;;;;;;5088784;28;20044;-81
2023/07/15 04:25:04;;;;;;;6.70;2.90;;;18.20;99.90;;;;;;5102858;28;20044;-80
2023/07/15 04:27:29;;;;;;;4.75;2.75;;;18.20;99.90;;;;;;5084351;28;20067;-81
2023/07/15 04:29:56;;;;;;;4.88;2.90;;;18.20;99.90;;;;;;5088838;28;20048;-81
2023/07/15 04:32:22;;;;;;;3.72;2.72;;;18.50;99.90;;;;;;5088770;28;20064;-81
2023/07/15 04:34:50;;;;;;;3.78;2.40;;;18.30;99.90;;;;;;5088306;28;20691;-80
2023/07/15 04:37:19;;;;;;;4.40;2.88;;;18.30;99.90;;;;;;5071068;28;20112;-81
2023/07/15 04:39:44;;;;;;;4.80;2.63;;;18.40;99.90;;;;;;5087336;28;20062;-81
2023/07/15 04:42:10;;;;;;;4.18;2.70;;;18.40;99.90;;;;;;5076800;28;20031;-81
2023/07/15 04:44:36;;;;;;;4.15;3.15;;;18.30;99.90;;;;;;5091419;28;20158;-81
2023/07/15 04:47:02;;;;;;;5.00;2.70;;;18.50;99.90;;;;;;5091833;28;20043;-80
2023/07/15 04:49:27;;;;;;;3.97;2.70;;;18.50;99.90;;;;;;5106545;28;20051;-81
2023/07/15 04:51:53;;;;;;;4.95;2.80;;;18.60;99.90;;;;;;5107178;28;20087;-80
2023/07/15 04:54:18;;;;;;;3.97;2.80;;;18.60;99.90;;;;;;5106211;28;20140;-79
2023/07/15 04:56:44;;;;;;;6.30;2.70;;;18.60;99.90;;;;;;5109349;28;20104;-79
2023/07/15 04:59:11;;;;;;;4.80;2.80;;;18.90;99.90;;;;;;5096312;28;20497;-78
2023/07/15 05:01:36;;;;;;;4.07;3.05;;;18.70;99.90;;;;;;5070672;28;20085;-80
2023/07/15 05:04:03;;;;;;;10.82;3.08;;;18.70;99.90;;;;;;5104750;28;20044;-80
2023/07/15 05:06:29;;;;;;;4.45;2.80;;;18.80;99.90;;;;;;5088615;28;20124;-81
2023/07/15 05:08:55;;;;;;;4.78;3.05;;;18.80;99.90;;;;;;5107908;27;20130;-81
2023/07/15 05:11:20;;;;;;;3.30;2.70;;;18.90;99.90;;;;;;5073020;28;20034;-83
2023/07/15 05:13:46;;;;;;;3.40;3.00;;;19.40;99.90;;;;;;5104415;28;20112;-81
2023/07/15 05:16:14;;;;;;;6.75;2.72;;;19.10;99.90;;;;;;5071939;28;20058;-81
2023/07/15 05:18:40;;;;;;;7.00;2.78;;;19.10;99.90;;;;;;5092752;28;20036;-82
2023/07/15 05:21:06;;;;;;;4.55;2.60;;;19.20;99.90;;;;;;5099170;28;20085;-81
2023/07/15 05:23:32;;;;;;;8.52;3.10;;;19.30;99.90;;;;;;5088060;28;20459;-81
2023/07/15 05:26:01;;;;;;;4.72;2.47;;;19.50;99.90;;;;;;5090681;27;20040;-81
2023/07/15 05:28:30;;;;;;;5.00;2.92;;;19.50;99.90;;;;;;5088413;28;20039;-81
2023/07/15 05:31:14;;;;;;;6.13;3.22;;;19.80;99.90;;;;;;5080243;28;20130;-81
2023/07/15 05:33:44;;;;;;;4.85;3.30;;;20.00;99.90;;;;;;5096847;28;20379;-81
2023/07/15 05:36:10;;;;;;;6.47;2.63;;;20.10;99.90;;;;;;5074236;28;20431;-80
2023/07/15 05:38:42;;;;;;;3.40;2.65;;;20.30;99.90;;;;;;5087089;28;20054;-80
2023/07/15 05:41:07;;;;;;;2.85;2.55;;;20.90;99.90;;;;;;5097633;28;20138;-80
2023/07/15 05:43:33;;;;;;;6.78;3.00;;;21.90;99.90;;;;;;5108109;28;20118;-80
2023/07/15 05:45:58;;;;;;;4.75;2.50;;;23.00;99.90;;;;;;5108706;28;20035;-80
2023/07/15 05:48:24;;;;;;;3.38;2.60;;;24.20;99.90;;;;;;5078593;28;20462;-80
2023/07/15 05:50:49;;;;;;;5.15;2.60;;;25.00;99.80;;;;;;5081747;28;20039;-80
2023/07/15 05:53:15;;;;;;;5.38;3.00;;;25.80;97.70;;;;;;5093190;28;20083;-81
2023/07/15 05:55:41;;;;;;;5.00;2.50;;;26.40;95.30;;;;;;5093108;28;20040;-81
2023/07/15 05:58:09;;;;;;;4.90;2.40;;;26.70;93.50;;;;;;5069995;28;20040;-81
2023/07/15 06:00:40;;;;;;;2.88;2.58;;;27.00;91.30;;;;;;5101631;28;20453;-78
2023/07/15 06:03:05;;;;;;;4.47;2.78;;;27.30;90.50;;;;;;5090314;28;20044;-80
2023/07/15 06:05:31;;;;;;;2.47;2.25;;;27.50;88.70;;;;;;5098264;28;20733;-79
2023/07/15 06:07:57;;;;;;;4.22;2.40;;;27.10;88.10;;;;;;5082825;28;20469;-79
2023/07/15 06:10:22;;;;;;;3.03;2.45;;;26.50;89.50;;;;;;5105042;28;20126;-80
2023/07/15 06:12:48;;;;;;;6.05;2.97;;;26.40;89.50;;;;;;5072351;28;20047;-80
2023/07/15 06:15:14;;;;;;;7.28;2.50;;;26.30;88.70;;;;;;5074596;28;20043;-81
2023/07/15 06:17:39;;;;;;;4.10;2.88;;;26.40;88.10;;;;;;5070203;28;20067;-80
2023/07/15 06:20:06;;;;;;;7.05;2.28;;;27.00;87.50;;;;;;5086258;28;20043;-80
2023/07/15 06:22:31;;;;;;;3.70;2.90;;;27.50;86.00;;;;;;5085967;28;20118;-80
2023/07/15 06:24:57;;;;;;;6.95;2.80;;;27.90;84.60;;;;;;5089752;28;20136;-79
2023/07/15 06:27:23;;;;;;;3.38;2.78;;;27.90;84.30;;;;;;5097834;28;20056;-80
2023/07/15 06:29:49;;;;;;;3.08;2.70;;;27.30;82.90;;;;;;5093581;28;20036;-81
2023/07/15 06:32:14;;;;;;;3.58;2.70;;;27.40;82.80;;;;;;5086125;28;20117;-79
2023/07/15 06:34:40;;;;;;;4.60;2.53;;;27.20;83.00;;;;;;5086161;28;20047;-79
2023/07/15 06:37:06;;;;;;;7.88;3.80;;;27.30;82.80;;;;;;5090756;28;20040;-78
2023/07/15 06:39:31;;;;;;;2.75;2.25;;;27.30;83.40;;;;;;5089588;28;20048;-78
2023/07/15 06:41:57;;;;;;;3.97;2.22;;;27.00;84.40;;;;;;5106363;28;20043;-79
2023/07/15 06:44:24;;;;;;;5.15;2.38;;;26.50;86.10;;;;;;5106403;28;20489;-78
2023/07/15 06:46:50;;;;;;;5.63;2.40;;;26.10;87.60;;;;;;5106319;28;20047;-79
2023/07/15 06:49:15;;;;;;;4.95;2.20;;;25.60;89.10;;;;;;5086992;28;20410;-80
2023/07/15 06:51:41;;;;;;;3.08;2.17;;;25.40;90.20;;;;;;5085635;28;20132;-80
2023/07/15 06:54:07;;;;;;;2.45;2.25;;;25.20;91.00;;;;;;5087712;28;20113;-80
2023/07/15 06:56:33;;;;;;;6.90;2.63;;;24.90;91.50;;;;;;5086985;28;20044;-78
2023/07/15 06:58:58;;;;;;;3.90;2.17;;;24.90;91.80;;;;;;5099809;28;20044;-78
2023/07/15 07:01:24;;;;;;;7.05;2.90;;;24.70;91.80;;;;;;5106073;28;20035;-78
2023/07/15 07:03:50;;;;;;;4.93;2.95;;;24.60;92.90;;;;;;5106353;28;20040;-78
2023/07/15 07:06:15;;;;;;;4.40;2.38;;;24.70;92.80;;;;;;5088981;28;20047;-78
2023/07/15 07:08:41;;;;;;;2.75;2.25;;;24.70;92.90;;;;;;5098721;28;20051;-78
2023/07/15 07:11:07;;;;;;;2.40;2.20;;;24.70;93.00;;;;;;5086033;28;20257;-78
2023/07/15 07:13:32;;;;;;;2.75;2.08;;;25.00;93.40;;;;;;5085603;28;20549;-77
2023/07/15 07:15:59;;;;;;;3.42;2.17;;;25.00;93.30;;;;;;5069021;28;20047;-78
2023/07/15 07:18:27;;;;;;;2.83;1.85;;;25.40;94.00;;;;;;5087159;28;20418;-79
2023/07/15 07:20:59;;;;;;;4.28;1.80;;;25.50;94.00;;;;;;5088801;28;20607;-78
2023/07/15 07:23:25;;;;;;;4.22;1.73;;;25.50;93.90;;;;;;5090238;28;20700;-79
2023/07/15 07:25:52;;;;;;;3.67;1.80;;;25.50;94.10;;;;;;5089258;28;20044;-78
2023/07/15 07:28:37;;;;;;;3.63;1.67;;;25.50;94.40;;;;;;5091042;28;20095;-79
2023/07/15 07:31:02;;;;;;;3.15;1.83;;;25.50;94.20;;;;;;5089985;28;20089;-79
2023/07/15 07:33:28;;;;;;;2.42;1.65;;;25.60;94.30;;;;;;5092624;28;20048;-79
2023/07/15 07:35:53;;;;;;;3.90;1.92;;;25.70;94.30;;;;;;5109390;28;20059;-79
2023/07/15 07:38:19;;;;;;;3.08;1.85;;;25.90;94.20;;;;;;5109010;28;20087;-79
2023/07/15 07:40:46;;;;;;;2.25;1.70;;;25.80;93.70;;;;;;5091977;28;20656;-79
2023/07/15 07:43:12;;;;;;;5.05;2.40;;;25.80;93.90;;;;;;5108880;28;20104;-79
2023/07/15 07:45:37;;;;;;;3.85;1.60;;;25.90;93.80;;;;;;5088972;28;20044;-79
2023/07/15 07:48:03;;;;;;;3.72;1.80;;;25.70;93.30;;;;;;5070817;28;20105;-79
2023/07/15 07:50:29;;;;;;;3.85;1.55;;;25.70;93.70;;;;;;5086587;28;20055;-79
2023/07/15 07:52:54;;;;;;;3.03;1.80;;;25.70;94.60;;;;;;5086888;28;20055;-78
2023/07/15 07:55:20;;;;;;;3.10;1.80;;;25.70;94.60;;;;;;5070627;28;20425;-81
2023/07/15 07:57:45;;;;;;;3.28;1.75;;;25.90;94.40;;;;;;5088274;28;20051;-82
2023/07/15 08:00:11;;;;;;;1.85;1.63;;;25.90;94.20;;;;;;5105064;28;20044;-80
2023/07/15 08:02:37;;;;;;;2.83;1.90;;;25.80;94.50;;;;;;5108814;28;20497;-80
2023/07/15 08:05:04;;;;;;;2.13;1.90;;;25.80;94.60;;;;;;5109763;28;20054;-81
2023/07/15 08:07:30;;;;;;;3.17;1.80;;;25.80;94.40;;;;;;5091719;28;20047;-80
2023/07/15 08:09:56;;;;;;;2.22;1.48;;;25.90;94.40;;;;;;5089208;28;20153;-82
2023/07/15 08:12:21;;;;;;;5.10;1.88;;;25.70;94.50;;;;;;5109110;28;20051;-81
2023/07/15 08:14:47;;;;;;;3.13;1.67;;;26.00;94.70;;;;;;5108532;28;20116;-81
2023/07/15 08:17:13;;;;;;;2.25;1.70;;;26.00;95.40;;;;;;5109718;28;20035;-81
2023/07/15 08:19:38;;;;;;;1.77;1.48;;;26.40;95.60;;;;;;5107100;28;20047;-82
2023/07/15 08:22:04;;;;;;;1.63;1.40;;;26.50;95.40;;;;;;5108555;28;20103;-82
2023/07/15 08:24:30;;;;;;;3.83;1.67;;;26.60;95.00;;;;;;5109136;28;20609;-82
2023/07/15 08:26:55;;;;;;;3.30;1.65;;;26.60;94.80;;;;;;5109156;28;20864;-82
2023/07/15 08:29:21;;;;;;;4.22;1.75;;;26.60;94.60;;;;;;5110381;28;20040;-81
2023/07/15 08:31:47;;;;;;;3.20;1.80;;;26.70;94.40;;;;;;5106169;28;20107;-82
2023/07/15 08:34:13;;;;;;;2.10;1.40;;;26.90;94.60;;;;;;5108989;28;20039;-82
2023/07/15 08:36:38;;;;;;;2.58;1.60;;;27.00;94.30;;;;;;5108121;28;20043;-84
2023/07/15 08:39:04;;;;;;;3.10;2.13;;;26.80;93.80;;;;;;5108498;28;20043;-81
2023/07/15 08:41:30;;;;;;;3.20;1.75;;;26.80;93.40;;;;;;5107961;28;20039;-82
2023/07/15 08:43:55;;;;;;;3.50;1.90;;;26.70;93.40;;;;;;5091859;28;20043;-83
2023/07/15 08:46:29;;;;;;;3.75;2.00;;;26.70;93.60;;;;;;5108330;28;20104;-83
2023/07/15 08:48:56;;;;;;;3.90;2.05;;;26.60;93.80;;;;;;5108573;28;20109;-83
2023/07/15 08:51:26;;;;;;;2.88;1.90;;;26.90;94.50;;;;;;5089523;28;20453;-82
2023/07/15 08:53:53;;;;;;;2.45;1.70;;;26.90;94.70;;;;;;5106124;28;20051;-82
2023/07/15 08:56:20;;;;;;;2.10;1.58;;;27.10;94.00;;;;;;5090993;28;20428;-81
2023/07/15 08:58:48;;;;;;;4.65;2.13;;;27.00;93.60;;;;;;5108424;28;20051;-82
2023/07/15 09:01:14;;;;;;;2.60;1.77;;;27.00;93.10;;;;;;5108274;28;20394;-83
2023/07/15 09:03:39;;;;;;;2.15;1.70;;;27.00;93.60;;;;;;5088229;28;20054;-82
2023/07/15 09:06:05;;;;;;;2.05;1.90;;;26.90;93.20;;;;;;5087434;28;20051;-84
2023/07/15 09:08:30;;;;;;;2.78;1.90;;;27.00;93.50;;;;;;5088450;28;20054;-81
2023/07/15 09:10:58;;;;;;;3.03;1.80;;;27.10;93.10;;;;;;5071350;28;20113;-84
2023/07/15 09:13:35;;;;;;;2.83;1.75;;;26.80;92.80;;;;;;5101479;28;20032;-84
2023/07/15 09:16:02;;;;;;;1.75;1.60;;;26.90;93.00;;;;;;5099748;28;20090;-84
2023/07/15 09:18:28;;;;;;;4.45;1.77;;;26.60;93.30;;;;;;5074360;28;20059;-83
2023/07/15 09:21:15;;;;;;;2.10;1.70;;;26.70;93.20;;;;;;5090913;28;20039;-81
2023/07/15 09:23:43;;;;;;;2.47;1.80;;;26.70;92.90;;;;;;5101819;28;20437;-83
2023/07/15 09:26:09;;;;;;;1.70;1.60;;;26.90;93.20;;;;;;5110653;28;20479;-82
2023/07/15 09:28:36;;;;;;;2.25;1.60;;;26.80;93.10;;;;;;5104550;28;20558;-83
2023/07/15 09:31:02;;;;;;;1.70;1.60;;;26.60;92.90;;;;;;5104379;28;20031;-83
2023/07/15 09:33:29;;;;;;;1.70;1.60;;;26.60;92.80;;;;;;5107062;28;20040;-82
2023/07/15 09:35:55;;;;;;;3.08;1.60;;;26.70;92.90;;;;;;5098092;28;20083;-82
2023/07/15 09:38:21;;;;;;;1.50;1.40;;;26.70;93.50;;;;;;5087733;28;20099;-83
2023/07/15 09:40:46;;;;;;;3.10;1.55;;;26.90;93.00;;;;;;5087809;28;20046;-83
2023/07/15 09:43:12;;;;;;;3.78;1.83;;;26.90;92.70;;;;;;5087831;28;20131;-82
2023/07/15 09:45:39;;;;;;;2.00;1.40;;;26.70;92.50;;;;;;5087932;28;20556;-82
2023/07/15 09:48:06;;;;;;;1.92;1.60;;;26.70;93.00;;;;;;5087538;28;20483;-83
2023/07/15 09:50:34;;;;;;;2.13;1.75;;;26.90;93.30;;;;;;5088860;28;20055;-83
2023/07/15 09:53:00;;;;;;;3.38;2.08;;;27.00;92.80;;;;;;5105838;28;20619;-83
2023/07/15 09:55:28;;;;;;;4.07;1.70;;;26.70;92.30;;;;;;5088747;28;20083;-83
2023/07/15 09:58:02;;;;;;;2.67;1.48;;;26.70;93.10;;;;;;5087870;28;20032;-83
2023/07/15 10:00:34;;;;;;;3.63;1.77;;;26.90;92.50;;;;;;5086378;28;20044;-82
2023/07/15 10:03:01;;;;;;;1.77;1.60;;;27.00;92.70;;;;;;5087239;28;20044;-82
2023/07/15 10:05:27;;;;;;;2.17;1.95;;;27.30;92.60;;;;;;5092465;28;20044;-83
2023/07/15 10:07:55;;;;;;;2.95;1.80;;;27.50;92.30;;;;;;5115084;28;20112;-85
2023/07/15 10:10:21;;;;;;;3.15;1.70;;;27.40;91.30;;;;;;5080073;28;20046;-82
2023/07/15 10:12:48;;;;;;;2.67;1.80;;;27.70;91.30;;;;;;5106707;28;20040;-82
2023/07/15 10:15:14;;;;;;;4.60;1.70;;;27.40;90.70;;;;;;5079533;28;20043;-83
2023/07/15 10:17:40;;;;;;;2.38;1.55;;;27.30;90.60;;;;;;5092049;28;20039;-82
2023/07/15 10:20:17;;;;;;;1.67;1.58;;;27.40;91.20;;;;;;5107747;28;20509;-83
2023/07/15 10:22:43;;;;;;;2.97;1.85;;;27.40;91.50;;;;;;5111447;28;20058;-83
2023/07/15 10:25:11;;;;;;;2.35;1.65;;;27.50;91.50;;;;;;5110526;28;20047;-83
2023/07/15 10:27:38;;;;;;;3.25;1.65;;;27.40;91.30;;;;;;5092623;28;20557;-84
2023/07/15 10:30:23;;;;;;;3.45;1.63;;;27.20;91.10;;;;;;5071435;28;20074;-84
2023/07/15 10:33:01;;;;;;;2.80;1.50;;;27.10;91.00;;;;;;5091973;28;20048;-83
2023/07/15 10:35:46;;;;;;;2.17;1.70;;;27.10;91.30;;;;;;5108414;28;20083;-84
2023/07/15 10:38:23;;;;;;;1.63;1.50;;;27.30;92.40;;;;;;5105463;28;20649;-83
2023/07/15 10:41:00;;;;;;;3.40;1.70;;;27.70;91.80;;;;;;5106969;28;20059;-84
2023/07/15 10:43:34;;;;;;;4.18;1.70;;;27.50;91.20;;;;;;5109798;28;20040;-84
2023/07/15 10:46:03;;;;;;;3.80;1.70;;;27.70;91.20;;;;;;5107916;28;20126;-82
2023/07/15 10:48:29;;;;;;;2.63;1.55;;;27.60;91.60;;;;;;5098075;28;20059;-82
2023/07/15 10:50:57;;;;;;;1.50;1.27;;;27.60;92.00;;;;;;5075621;28;20040;-83
2023/07/15 10:53:32;;;;;;;2.45;1.35;;;27.70;91.60;;;;;;5067671;28;20044;-83
2023/07/15 10:56:04;;;;;;;1.35;1.20;;;27.90;91.40;;;;;;5056270;28;20880;-83
2023/07/15 10:58:32;;;;;;;1.30;1.13;;;27.80;90.60;;;;;;5076643;28;20118;-83
2023/07/15 11:01:00;;;;;;;1.85;1.33;;;27.60;91.00;;;;;;5072657;28;20045;-82
2023/07/15 11:03:27;;;;;;;2.35;1.38;;;27.50;90.70;;;;;;5072553;28;20041;-82
2023/07/15 11:05:58;;;;;;;3.55;1.40;;;27.30;90.70;;;;;;5073303;28;20055;-83
2023/07/15 11:08:24;;;;;;;1.40;1.30;;;27.30;91.20;;;;;;5074048;28;20032;-82
2023/07/15 11:10:56;;;;;;;2.88;1.50;;;27.60;91.00;;;;;;5074191;28;20096;-83
2023/07/15 11:13:22;;;;;;;1.30;0.98;;;27.40;91.40;;;;;;5080520;28;20043;-83
2023/07/15 11:15:47;;;;;;;2.20;1.10;;;27.40;91.10;;;;;;5092080;28;20619;-84
2023/07/15 11:18:18;;;;;;;3.92;1.50;;;27.60;91.00;;;;;;5091142;28;20119;-83
2023/07/15 11:20:48;;;;;;;4.10;1.20;;;27.80;90.50;;;;;;5093258;28;20051;-83
2023/07/15 11:23:16;;;;;;;5.47;1.40;;;27.70;90.00;;;;;;5088439;28;20139;-83
2023/07/15 11:25:41;;;;;;;2.42;1.38;;;27.80;90.60;;;;;;5054445;28;20564;-83
2023/07/15 11:28:08;;;;;;;2.15;1.30;;;27.80;90.90;;;;;;5075985;28;20041;-83
2023/07/15 11:30:36;;;;;;;3.38;1.50;;;28.10;90.30;;;;;;5074627;28;20047;-84
2023/07/15 11:33:03;;;;;;;1.77;1.23;;;27.90;90.00;;;;;;5080604;28;20101;-82
2023/07/15 11:35:33;;;;;;;2.17;1.50;;;27.90;90.50;;;;;;5084859;28;20044;-83
2023/07/15 11:38:29;;;;;;;2.25;1.15;;;27.80;90.20;;;;;;5087439;28;20419;-82
2023/07/15 11:40:58;;;;;;;3.85;1.73;;;27.80;90.20;;;;;;5077870;28;20044;-82
2023/07/15 11:43:28;;;;;;;3.17;1.40;;;27.70;90.20;;;;;;5064336;28;20056;-83
2023/07/15 11:45:59;;;;;;;3.20;1.50;;;27.60;89.70;;;;;;5089686;28;20131;-85
2023/07/15 11:48:27;;;;;;;2.20;1.60;;;27.40;90.10;;;;;;5086381;28;20048;-83
2023/07/15 11:50:57;;;;;;;3.25;1.60;;;27.20;91.10;;;;;;5091244;28;20048;-83
2023/07/15 11:53:30;;;;;;;1.98;1.55;;;27.00;91.00;;;;;;5112406;28;20058;-83
2023/07/15 11:55:56;;;;;;;1.90;1.73;;;26.90;91.40;;;;;;5112511;28;20685;-82
2023/07/15 11:58:45;;;;;;;4.63;1.90;;;26.70;92.10;;;;;;5106574;28;20043;-85
2023/07/15 12:01:13;;;;;;;1.77;1.60;;;26.40;92.50;;;;;;5095139;28;20056;-82
2023/07/15 12:03:42;;;;;;;5.65;1.80;;;26.30;93.00;;;;;;5099716;28;20044;-82
2023/07/15 12:06:19;;;;;;;2.65;1.52;;;26.20;93.40;;;;;;5103108;28;20500;-83
2023/07/15 12:09:02;;;;;;;2.95;1.77;;;26.20;94.10;;;;;;5107709;28;20032;-84
2023/07/15 12:11:30;;;;;;;3.47;1.52;;;26.40;93.40;;;;;;5112790;28;20039;-83
2023/07/15 12:13:55;;;;;;;3.47;1.63;;;26.50;94.00;;;;;;5104951;28;20494;-82
2023/07/15 12:16:22;;;;;;;1.50;1.40;;;26.70;93.30;;;;;;5092920;28;20044;-82
2023/07/15 12:18:48;;;;;;;4.03;1.50;;;26.80;92.90;;;;;;5097411;28;20036;-82
2023/07/15 12:21:14;;;;;;;5.45;1.40;;;26.80;93.20;;;;;;5106715;28;20043;-84
2023/07/15 12:23:43;;;;;;;3.08;1.40;;;26.90;93.30;;;;;;5110856;28;20095;-84
2023/07/15 12:26:09;;;;;;;3.42;1.73;;;27.00;93.10;;;;;;5084042;28;20537;-83
2023/07/15 12:28:35;;;;;;;6.28;2.22;;;27.20;93.20;;;;;;5106548;28;20122;-83
2023/07/15 12:31:04;;;;;;;1.92;1.55;;;27.20;92.50;;;;;;5106470;28;20043;-83
2023/07/15 12:33:29;;;;;;;2.00;1.50;;;27.00;92.30;;;;;;5091872;28;20443;-84
2023/07/15 12:35:55;;;;;;;2.38;1.45;;;26.90;91.90;;;;;;5102414;28;20047;-83
2023/07/15 12:38:21;;;;;;;1.80;1.35;;;26.80;91.70;;;;;;5088503;28;20051;-81
2023/07/15 12:40:47;;;;;;;1.80;1.40;;;26.90;91.20;;;;;;5073289;28;20054;-82
2023/07/15 12:43:14;;;;;;;1.95;1.80;;;26.50;91.00;;;;;;5087640;28;20084;-80
2023/07/15 12:45:41;;;;;;;4.97;1.55;;;26.70;91.20;;;;;;5096906;28;20043;-80
2023/07/15 12:48:06;;;;;;;2.17;1.55;;;26.60;90.90;;;;;;5092976;28;20067;-81